Eatonville, Washington
Current Conditions -  °F | °C
As of 5:40 PM on Friday 24 Oct 2014 (Local Time) from KGRF Reporting Station
Drizzle Drizzle  
Wind Chill: 54°   Ceiling: Unl
Heat Index: 54°   Visibility: 10mi
Dew Point: 48°   Wind: 3mph
Humidity: 82%   Direction: 10°N
Pressure: 29.86"   Gusts: NA
Location:  46.87°N, 122.27°W
Report Text: KGRF 250040Z AUTO 01003KT 10SM DZ FEW050 12/09 A2986 RMK AO2
Loading
Personal Weather Stations






























Interactive Weather Map
Tropical Storm Tracking
New forecast layout! Learn more

10-Day Weather Forecast

Advertisements
Track Severe Weather on mobile